sensor_id;sensor_type;location;lat;lon;timestamp;P1;durP1;ratioP1;P2;durP2;ratioP2
44328;SDS011;30039;51.462;6.892;2023-10-19T00:02:24;5.28;;;3.55;;
44328;SDS011;30039;51.462;6.892;2023-10-19T00:05:10;5.93;;;3.50;;
44328;SDS011;30039;51.462;6.892;2023-10-19T00:07:58;4.68;;;3.22;;
44328;SDS011;30039;51.462;6.892;2023-10-19T00:10:46;5.05;;;3.10;;
44328;SDS011;30039;51.462;6.892;2023-10-19T00:14:01;4.47;;;3.40;;
44328;SDS011;30039;51.462;6.892;2023-10-19T00:16:48;5.35;;;3.58;;
44328;SDS011;30039;51.462;6.892;2023-10-19T00:19:39;6.35;;;3.80;;
44328;SDS011;30039;51.462;6.892;2023-10-19T00:22:43;6.15;;;3.25;;
44328;SDS011;30039;51.462;6.892;2023-10-19T00:25:29;6.15;;;3.10;;
44328;SDS011;30039;51.462;6.892;2023-10-19T00:28:15;4.63;;;3.40;;
44328;SDS011;30039;51.462;6.892;2023-10-19T00:31:02;4.00;;;3.13;;
44328;SDS011;30039;51.462;6.892;2023-10-19T00:33:54;5.43;;;3.65;;
44328;SDS011;30039;51.462;6.892;2023-10-19T00:36:40;5.38;;;3.53;;
44328;SDS011;30039;51.462;6.892;2023-10-19T00:39:26;4.18;;;2.90;;
44328;SDS011;30039;51.462;6.892;2023-10-19T00:42:12;3.85;;;3.15;;
44328;SDS011;30039;51.462;6.892;2023-10-19T00:45:00;5.57;;;3.25;;
44328;SDS011;30039;51.462;6.892;2023-10-19T00:47:49;5.97;;;3.60;;
44328;SDS011;30039;51.462;6.892;2023-10-19T00:50:38;5.25;;;3.47;;
44328;SDS011;30039;51.462;6.892;2023-10-19T00:53:24;5.75;;;3.63;;
44328;SDS011;30039;51.462;6.892;2023-10-19T00:56:12;6.05;;;3.30;;
44328;SDS011;30039;51.462;6.892;2023-10-19T00:58:58;4.15;;;3.40;;
44328;SDS011;30039;51.462;6.892;2023-10-19T01:01:58;5.47;;;3.47;;
44328;SDS011;30039;51.462;6.892;2023-10-19T01:05:01;7.07;;;3.75;;
44328;SDS011;30039;51.462;6.892;2023-10-19T01:07:51;6.53;;;3.55;;
44328;SDS011;30039;51.462;6.892;2023-10-19T01:10:42;5.93;;;3.20;;
44328;SDS011;30039;51.462;6.892;2023-10-19T01:13:31;7.15;;;4.32;;
44328;SDS011;30039;51.462;6.892;2023-10-19T01:16:19;4.97;;;3.58;;
44328;SDS011;30039;51.462;6.892;2023-10-19T01:19:08;6.82;;;4.07;;
44328;SDS011;30039;51.462;6.892;2023-10-19T01:21:54;7.38;;;3.92;;
44328;SDS011;30039;51.462;6.892;2023-10-19T01:24:45;5.95;;;4.03;;
44328;SDS011;30039;51.462;6.892;2023-10-19T01:27:31;6.60;;;4.53;;
44328;SDS011;30039;51.462;6.892;2023-10-19T01:30:17;5.28;;;3.72;;
44328;SDS011;30039;51.462;6.892;2023-10-19T01:33:04;5.38;;;3.92;;
44328;SDS011;30039;51.462;6.892;2023-10-19T01:35:53;5.13;;;3.72;;
44328;SDS011;30039;51.462;6.892;2023-10-19T01:38:59;5.85;;;3.60;;
44328;SDS011;30039;51.462;6.892;2023-10-19T01:41:54;5.25;;;3.40;;
44328;SDS011;30039;51.462;6.892;2023-10-19T01:44:40;6.75;;;3.40;;
44328;SDS011;30039;51.462;6.892;2023-10-19T01:47:26;6.82;;;3.70;;
44328;SDS011;30039;51.462;6.892;2023-10-19T01:50:13;6.38;;;3.65;;
44328;SDS011;30039;51.462;6.892;2023-10-19T01:53:05;5.20;;;3.65;;
44328;SDS011;30039;51.462;6.892;2023-10-19T01:56:00;6.82;;;3.63;;
44328;SDS011;30039;51.462;6.892;2023-10-19T01:58:46;6.82;;;3.85;;
44328;SDS011;30039;51.462;6.892;2023-10-19T02:01:32;5.63;;;3.42;;
44328;SDS011;30039;51.462;6.892;2023-10-19T02:04:18;5.07;;;3.58;;
44328;SDS011;30039;51.462;6.892;2023-10-19T02:07:07;4.88;;;3.40;;
44328;SDS011;30039;51.462;6.892;2023-10-19T02:09:58;5.65;;;3.42;;
44328;SDS011;30039;51.462;6.892;2023-10-19T02:12:43;4.75;;;3.10;;
44328;SDS011;30039;51.462;6.892;2023-10-19T02:15:34;5.90;;;2.85;;
44328;SDS011;30039;51.462;6.892;2023-10-19T02:18:20;5.07;;;3.55;;
44328;SDS011;30039;51.462;6.892;2023-10-19T02:21:06;5.85;;;3.67;;
44328;SDS011;30039;51.462;6.892;2023-10-19T02:23:52;5.32;;;3.20;;
44328;SDS011;30039;51.462;6.892;2023-10-19T02:26:38;4.57;;;3.35;;
44328;SDS011;30039;51.462;6.892;2023-10-19T02:29:24;5.35;;;3.35;;
44328;SDS011;30039;51.462;6.892;2023-10-19T02:32:11;4.82;;;3.30;;
44328;SDS011;30039;51.462;6.892;2023-10-19T02:34:57;5.43;;;2.95;;
44328;SDS011;30039;51.462;6.892;2023-10-19T02:37:42;5.25;;;3.10;;
44328;SDS011;30039;51.462;6.892;2023-10-19T02:40:29;5.72;;;2.85;;
44328;SDS011;30039;51.462;6.892;2023-10-19T02:43:16;5.32;;;3.15;;
44328;SDS011;30039;51.462;6.892;2023-10-19T02:46:02;5.28;;;2.67;;
44328;SDS011;30039;51.462;6.892;2023-10-19T02:48:49;4.43;;;2.80;;
44328;SDS011;30039;51.462;6.892;2023-10-19T02:51:35;6.22;;;2.60;;
44328;SDS011;30039;51.462;6.892;2023-10-19T02:54:22;4.22;;;2.17;;
44328;SDS011;30039;51.462;6.892;2023-10-19T02:57:09;4.25;;;2.55;;
44328;SDS011;30039;51.462;6.892;2023-10-19T02:59:58;4.28;;;2.00;;
44328;SDS011;30039;51.462;6.892;2023-10-19T03:02:45;3.47;;;2.10;;
44328;SDS011;30039;51.462;6.892;2023-10-19T03:05:31;4.70;;;2.20;;
44328;SDS011;30039;51.462;6.892;2023-10-19T03:08:17;3.13;;;2.08;;
44328;SDS011;30039;51.462;6.892;2023-10-19T03:11:04;3.83;;;2.00;;
44328;SDS011;30039;51.462;6.892;2023-10-19T03:13:50;3.67;;;2.30;;
44328;SDS011;30039;51.462;6.892;2023-10-19T03:16:36;3.75;;;2.20;;
44328;SDS011;30039;51.462;6.892;2023-10-19T03:19:22;4.00;;;2.20;;
44328;SDS011;30039;51.462;6.892;2023-10-19T03:22:10;3.78;;;2.30;;
44328;SDS011;30039;51.462;6.892;2023-10-19T03:24:57;7.68;;;3.10;;
44328;SDS011;30039;51.462;6.892;2023-10-19T03:28:05;4.32;;;2.22;;
44328;SDS011;30039;51.462;6.892;2023-10-19T03:30:54;2.88;;;1.95;;
44328;SDS011;30039;51.462;6.892;2023-10-19T03:33:40;4.35;;;2.38;;
44328;SDS011;30039;51.462;6.892;2023-10-19T03:36:26;3.78;;;2.08;;
44328;SDS011;30039;51.462;6.892;2023-10-19T03:39:11;3.63;;;2.28;;
44328;SDS011;30039;51.462;6.892;2023-10-19T03:41:58;4.10;;;2.17;;
44328;SDS011;30039;51.462;6.892;2023-10-19T03:44:44;3.13;;;2.30;;
44328;SDS011;30039;51.462;6.892;2023-10-19T03:47:32;3.38;;;2.35;;
44328;SDS011;30039;51.462;6.892;2023-10-19T03:50:21;3.28;;;2.13;;
44328;SDS011;30039;51.462;6.892;2023-10-19T03:53:07;3.88;;;2.58;;
44328;SDS011;30039;51.462;6.892;2023-10-19T03:55:52;4.10;;;2.30;;
44328;SDS011;30039;51.462;6.892;2023-10-19T03:58:40;3.55;;;2.03;;
44328;SDS011;30039;51.462;6.892;2023-10-19T04:01:28;4.60;;;2.13;;
44328;SDS011;30039;51.462;6.892;2023-10-19T04:04:16;4.55;;;2.10;;
44328;SDS011;30039;51.462;6.892;2023-10-19T04:07:02;3.05;;;1.85;;
44328;SDS011;30039;51.462;6.892;2023-10-19T04:09:56;6.25;;;2.58;;
44328;SDS011;30039;51.462;6.892;2023-10-19T04:12:42;4.60;;;2.00;;
44328;SDS011;30039;51.462;6.892;2023-10-19T04:15:29;3.05;;;2.00;;
44328;SDS011;30039;51.462;6.892;2023-10-19T04:18:14;4.00;;;1.70;;
44328;SDS011;30039;51.462;6.892;2023-10-19T04:21:01;4.88;;;1.77;;
44328;SDS011;30039;51.462;6.892;2023-10-19T04:23:48;3.30;;;1.80;;
44328;SDS011;30039;51.462;6.892;2023-10-19T04:26:34;4.38;;;1.98;;
44328;SDS011;30039;51.462;6.892;2023-10-19T04:29:22;4.60;;;1.90;;
44328;SDS011;30039;51.462;6.892;2023-10-19T04:32:12;3.53;;;1.75;;
44328;SDS011;30039;51.462;6.892;2023-10-19T04:34:59;4.38;;;2.13;;
44328;SDS011;30039;51.462;6.892;2023-10-19T04:37:45;5.65;;;2.05;;
44328;SDS011;30039;51.462;6.892;2023-10-19T04:40:30;2.55;;;1.77;;
44328;SDS011;30039;51.462;6.892;2023-10-19T04:43:16;5.28;;;2.10;;
44328;SDS011;30039;51.462;6.892;2023-10-19T04:46:06;3.92;;;1.65;;
44328;SDS011;30039;51.462;6.892;2023-10-19T04:48:54;4.20;;;1.70;;
44328;SDS011;30039;51.462;6.892;2023-10-19T04:51:39;3.13;;;1.75;;
44328;SDS011;30039;51.462;6.892;2023-10-19T04:54:25;3.72;;;1.90;;
44328;SDS011;30039;51.462;6.892;2023-10-19T04:57:11;3.80;;;2.00;;
44328;SDS011;30039;51.462;6.892;2023-10-19T04:59:56;3.83;;;1.80;;
44328;SDS011;30039;51.462;6.892;2023-10-19T05:02:42;3.45;;;1.83;;
44328;SDS011;30039;51.462;6.892;2023-10-19T05:05:28;3.38;;;1.77;;
44328;SDS011;30039;51.462;6.892;2023-10-19T05:08:13;4.00;;;1.80;;
44328;SDS011;30039;51.462;6.892;2023-10-19T05:10:59;4.00;;;2.20;;
44328;SDS011;30039;51.462;6.892;2023-10-19T05:13:45;4.47;;;2.20;;
44328;SDS011;30039;51.462;6.892;2023-10-19T05:16:30;3.97;;;1.80;;
44328;SDS011;30039;51.462;6.892;2023-10-19T05:19:16;4.68;;;1.80;;
44328;SDS011;30039;51.462;6.892;2023-10-19T05:22:04;3.92;;;1.90;;
44328;SDS011;30039;51.462;6.892;2023-10-19T05:24:50;4.25;;;1.70;;
44328;SDS011;30039;51.462;6.892;2023-10-19T05:27:35;2.38;;;1.50;;
44328;SDS011;30039;51.462;6.892;2023-10-19T05:30:22;4.65;;;1.85;;
44328;SDS011;30039;51.462;6.892;2023-10-19T05:33:08;5.05;;;1.73;;
44328;SDS011;30039;51.462;6.892;2023-10-19T05:35:54;4.22;;;1.90;;
44328;SDS011;30039;51.462;6.892;2023-10-19T05:38:39;3.88;;;1.98;;
44328;SDS011;30039;51.462;6.892;2023-10-19T05:41:25;4.82;;;1.70;;
44328;SDS011;30039;51.462;6.892;2023-10-19T05:44:12;4.18;;;1.83;;
44328;SDS011;30039;51.462;6.892;2023-10-19T05:46:57;5.50;;;1.85;;
44328;SDS011;30039;51.462;6.892;2023-10-19T05:49:43;2.35;;;1.50;;
44328;SDS011;30039;51.462;6.892;2023-10-19T05:52:29;5.43;;;1.60;;
44328;SDS011;30039;51.462;6.892;2023-10-19T05:55:14;4.03;;;1.60;;
44328;SDS011;30039;51.462;6.892;2023-10-19T05:58:01;5.00;;;1.58;;
44328;SDS011;30039;51.462;6.892;2023-10-19T06:00:46;4.28;;;1.73;;
44328;SDS011;30039;51.462;6.892;2023-10-19T06:03:32;5.72;;;1.83;;
44328;SDS011;30039;51.462;6.892;2023-10-19T06:06:21;4.72;;;1.85;;
44328;SDS011;30039;51.462;6.892;2023-10-19T06:09:06;7.43;;;1.90;;
44328;SDS011;30039;51.462;6.892;2023-10-19T06:11:54;2.60;;;1.73;;
44328;SDS011;30039;51.462;6.892;2023-10-19T06:14:40;3.95;;;1.80;;
44328;SDS011;30039;51.462;6.892;2023-10-19T06:17:26;4.80;;;2.20;;
44328;SDS011;30039;51.462;6.892;2023-10-19T06:20:12;8.07;;;2.20;;
44328;SDS011;30039;51.462;6.892;2023-10-19T06:23:09;3.03;;;1.73;;
44328;SDS011;30039;51.462;6.892;2023-10-19T06:25:57;4.32;;;1.90;;
44328;SDS011;30039;51.462;6.892;2023-10-19T06:28:43;3.10;;;1.75;;
44328;SDS011;30039;51.462;6.892;2023-10-19T06:31:28;6.30;;;2.00;;
44328;SDS011;30039;51.462;6.892;2023-10-19T06:34:14;5.65;;;1.67;;
44328;SDS011;30039;51.462;6.892;2023-10-19T06:37:00;4.30;;;1.90;;
44328;SDS011;30039;51.462;6.892;2023-10-19T06:39:46;5.70;;;1.63;;
44328;SDS011;30039;51.462;6.892;2023-10-19T06:42:32;4.53;;;1.90;;
44328;SDS011;30039;51.462;6.892;2023-10-19T06:45:17;4.18;;;1.80;;
44328;SDS011;30039;51.462;6.892;2023-10-19T06:48:04;4.55;;;1.90;;
44328;SDS011;30039;51.462;6.892;2023-10-19T06:50:51;3.78;;;1.73;;
44328;SDS011;30039;51.462;6.892;2023-10-19T06:53:37;5.95;;;1.90;;
44328;SDS011;30039;51.462;6.892;2023-10-19T06:56:23;4.82;;;2.08;;
44328;SDS011;30039;51.462;6.892;2023-10-19T06:59:08;3.83;;;1.90;;
44328;SDS011;30039;51.462;6.892;2023-10-19T07:01:54;4.10;;;1.90;;
44328;SDS011;30039;51.462;6.892;2023-10-19T07:04:39;2.92;;;1.65;;
44328;SDS011;30039;51.462;6.892;2023-10-19T07:07:25;2.65;;;1.92;;
44328;SDS011;30039;51.462;6.892;2023-10-19T07:10:11;4.50;;;1.65;;
44328;SDS011;30039;51.462;6.892;2023-10-19T07:12:58;2.92;;;1.52;;
44328;SDS011;30039;51.462;6.892;2023-10-19T07:15:47;3.65;;;1.70;;
44328;SDS011;30039;51.462;6.892;2023-10-19T07:18:34;5.82;;;1.63;;
44328;SDS011;30039;51.462;6.892;2023-10-19T07:21:20;3.58;;;1.60;;
44328;SDS011;30039;51.462;6.892;2023-10-19T07:24:06;3.83;;;1.60;;
44328;SDS011;30039;51.462;6.892;2023-10-19T07:26:54;5.35;;;1.90;;
44328;SDS011;30039;51.462;6.892;2023-10-19T07:29:48;5.00;;;1.80;;
44328;SDS011;30039;51.462;6.892;2023-10-19T07:32:34;6.15;;;2.00;;
44328;SDS011;30039;51.462;6.892;2023-10-19T07:35:20;3.85;;;1.77;;
44328;SDS011;30039;51.462;6.892;2023-10-19T07:38:07;3.47;;;1.90;;
44328;SDS011;30039;51.462;6.892;2023-10-19T07:40:53;4.00;;;2.03;;
44328;SDS011;30039;51.462;6.892;2023-10-19T07:43:38;3.92;;;2.15;;
44328;SDS011;30039;51.462;6.892;2023-10-19T07:46:24;6.07;;;2.40;;
44328;SDS011;30039;51.462;6.892;2023-10-19T07:49:11;3.17;;;2.08;;
44328;SDS011;30039;51.462;6.892;2023-10-19T07:51:59;4.70;;;1.70;;
44328;SDS011;30039;51.462;6.892;2023-10-19T07:54:45;3.75;;;2.28;;
44328;SDS011;30039;51.462;6.892;2023-10-19T07:57:32;3.90;;;2.15;;
44328;SDS011;30039;51.462;6.892;2023-10-19T08:00:19;4.63;;;2.13;;
44328;SDS011;30039;51.462;6.892;2023-10-19T08:03:05;3.92;;;2.03;;
44328;SDS011;30039;51.462;6.892;2023-10-19T08:05:51;3.67;;;1.85;;
44328;SDS011;30039;51.462;6.892;2023-10-19T08:08:36;5.03;;;2.30;;
44328;SDS011;30039;51.462;6.892;2023-10-19T08:11:23;5.80;;;2.20;;
44328;SDS011;30039;51.462;6.892;2023-10-19T08:14:09;3.67;;;2.53;;
44328;SDS011;30039;51.462;6.892;2023-10-19T08:16:54;4.88;;;2.15;;
44328;SDS011;30039;51.462;6.892;2023-10-19T08:19:42;3.80;;;2.20;;
44328;SDS011;30039;51.462;6.892;2023-10-19T08:22:27;4.75;;;1.98;;
44328;SDS011;30039;51.462;6.892;2023-10-19T08:25:13;3.45;;;2.10;;
44328;SDS011;30039;51.462;6.892;2023-10-19T08:28:00;4.90;;;1.83;;
44328;SDS011;30039;51.462;6.892;2023-10-19T08:30:46;4.15;;;2.10;;
44328;SDS011;30039;51.462;6.892;2023-10-19T08:33:41;5.43;;;2.30;;
44328;SDS011;30039;51.462;6.892;2023-10-19T08:36:27;5.57;;;2.00;;
44328;SDS011;30039;51.462;6.892;2023-10-19T08:39:13;3.35;;;1.90;;
44328;SDS011;30039;51.462;6.892;2023-10-19T08:41:59;3.88;;;2.20;;
44328;SDS011;30039;51.462;6.892;2023-10-19T08:44:45;4.57;;;2.20;;
44328;SDS011;30039;51.462;6.892;2023-10-19T08:47:30;5.15;;;2.55;;
44328;SDS011;30039;51.462;6.892;2023-10-19T08:50:16;3.63;;;2.20;;
44328;SDS011;30039;51.462;6.892;2023-10-19T08:53:02;4.45;;;1.92;;
44328;SDS011;30039;51.462;6.892;2023-10-19T08:55:48;5.38;;;2.38;;
44328;SDS011;30039;51.462;6.892;2023-10-19T08:58:35;5.35;;;2.15;;
44328;SDS011;30039;51.462;6.892;2023-10-19T09:01:21;3.58;;;1.98;;
44328;SDS011;30039;51.462;6.892;2023-10-19T09:04:12;4.50;;;1.77;;
44328;SDS011;30039;51.462;6.892;2023-10-19T09:06:58;5.07;;;2.10;;
44328;SDS011;30039;51.462;6.892;2023-10-19T09:09:45;4.82;;;1.83;;
44328;SDS011;30039;51.462;6.892;2023-10-19T09:12:32;3.65;;;2.20;;
44328;SDS011;30039;51.462;6.892;2023-10-19T09:15:22;4.15;;;1.90;;
44328;SDS011;30039;51.462;6.892;2023-10-19T09:18:15;7.32;;;2.00;;
44328;SDS011;30039;51.462;6.892;2023-10-19T09:21:01;8.32;;;1.90;;
44328;SDS011;30039;51.462;6.892;2023-10-19T09:23:53;4.05;;;1.85;;
44328;SDS011;30039;51.462;6.892;2023-10-19T09:26:40;3.70;;;1.92;;
44328;SDS011;30039;51.462;6.892;2023-10-19T09:29:25;4.10;;;1.73;;
44328;SDS011;30039;51.462;6.892;2023-10-19T09:32:11;4.80;;;1.90;;
44328;SDS011;30039;51.462;6.892;2023-10-19T09:34:58;3.95;;;1.63;;
44328;SDS011;30039;51.462;6.892;2023-10-19T09:37:45;3.83;;;1.50;;
44328;SDS011;30039;51.462;6.892;2023-10-19T09:40:31;3.45;;;1.52;;
44328;SDS011;30039;51.462;6.892;2023-10-19T09:43:21;8.77;;;1.90;;
44328;SDS011;30039;51.462;6.892;2023-10-19T09:46:10;2.45;;;1.50;;
44328;SDS011;30039;51.462;6.892;2023-10-19T09:48:57;6.88;;;1.70;;
44328;SDS011;30039;51.462;6.892;2023-10-19T09:51:43;7.50;;;1.77;;
44328;SDS011;30039;51.462;6.892;2023-10-19T09:54:33;4.20;;;1.45;;
44328;SDS011;30039;51.462;6.892;2023-10-19T09:57:25;5.75;;;1.70;;
44328;SDS011;30039;51.462;6.892;2023-10-19T10:00:13;4.20;;;1.70;;
44328;SDS011;30039;51.462;6.892;2023-10-19T10:02:59;8.38;;;1.48;;
44328;SDS011;30039;51.462;6.892;2023-10-19T10:05:44;4.90;;;1.48;;
44328;SDS011;30039;51.462;6.892;2023-10-19T10:08:30;5.82;;;1.80;;
44328;SDS011;30039;51.462;6.892;2023-10-19T10:11:20;6.28;;;1.60;;
44328;SDS011;30039;51.462;6.892;2023-10-19T10:14:19;7.28;;;1.70;;
44328;SDS011;30039;51.462;6.892;2023-10-19T10:17:06;5.22;;;1.50;;
44328;SDS011;30039;51.462;6.892;2023-10-19T10:20:40;5.32;;;1.48;;
44328;SDS011;30039;51.462;6.892;2023-10-19T10:23:20;3.55;;;1.10;;
44328;SDS011;30039;51.462;6.892;2023-10-19T10:31:54;7.82;;;1.60;;
44328;SDS011;30039;51.462;6.892;2023-10-19T10:37:27;3.67;;;1.10;;
44328;SDS011;30039;51.462;6.892;2023-10-19T10:40:13;5.18;;;1.30;;
44328;SDS011;30039;51.462;6.892;2023-10-19T10:43:06;5.43;;;1.20;;
44328;SDS011;30039;51.462;6.892;2023-10-19T10:45:52;3.88;;;1.60;;
44328;SDS011;30039;51.462;6.892;2023-10-19T10:48:41;5.05;;;1.20;;
44328;SDS011;30039;51.462;6.892;2023-10-19T10:51:27;4.38;;;1.23;;
44328;SDS011;30039;51.462;6.892;2023-10-19T10:54:20;5.10;;;1.60;;
44328;SDS011;30039;51.462;6.892;2023-10-19T10:57:06;6.38;;;1.60;;
44328;SDS011;30039;51.462;6.892;2023-10-19T11:00:04;6.68;;;1.33;;
44328;SDS011;30039;51.462;6.892;2023-10-19T11:03:06;4.57;;;1.30;;
44328;SDS011;30039;51.462;6.892;2023-10-19T11:05:53;4.82;;;1.40;;
44328;SDS011;30039;51.462;6.892;2023-10-19T11:08:39;4.70;;;1.50;;
44328;SDS011;30039;51.462;6.892;2023-10-19T11:11:25;8.98;;;1.50;;
44328;SDS011;30039;51.462;6.892;2023-10-19T11:14:11;7.05;;;1.50;;
44328;SDS011;30039;51.462;6.892;2023-10-19T11:17:11;4.53;;;1.10;;
44328;SDS011;30039;51.462;6.892;2023-10-19T11:19:57;7.82;;;1.50;;
44328;SDS011;30039;51.462;6.892;2023-10-19T11:22:52;5.32;;;1.50;;
44328;SDS011;30039;51.462;6.892;2023-10-19T11:25:38;4.60;;;1.30;;
44328;SDS011;30039;51.462;6.892;2023-10-19T11:28:24;4.47;;;1.50;;
44328;SDS011;30039;51.462;6.892;2023-10-19T11:31:17;4.43;;;1.55;;
44328;SDS011;30039;51.462;6.892;2023-10-19T11:34:03;3.55;;;1.20;;
44328;SDS011;30039;51.462;6.892;2023-10-19T11:36:52;5.68;;;1.48;;
44328;SDS011;30039;51.462;6.892;2023-10-19T11:39:38;6.70;;;1.55;;
44328;SDS011;30039;51.462;6.892;2023-10-19T11:42:23;4.35;;;1.38;;
44328;SDS011;30039;51.462;6.892;2023-10-19T11:45:09;8.32;;;1.38;;
44328;SDS011;30039;51.462;6.892;2023-10-19T11:47:56;4.40;;;1.17;;
44328;SDS011;30039;51.462;6.892;2023-10-19T11:50:42;6.15;;;1.38;;
44328;SDS011;30039;51.462;6.892;2023-10-19T11:53:29;4.30;;;1.25;;
44328;SDS011;30039;51.462;6.892;2023-10-19T11:56:19;5.45;;;1.50;;
44328;SDS011;30039;51.462;6.892;2023-10-19T11:59:06;4.43;;;1.25;;
44328;SDS011;30039;51.462;6.892;2023-10-19T12:01:52;4.40;;;1.40;;
44328;SDS011;30039;51.462;6.892;2023-10-19T12:04:38;5.82;;;1.30;;
44328;SDS011;30039;51.462;6.892;2023-10-19T12:07:24;6.82;;;1.40;;
44328;SDS011;30039;51.462;6.892;2023-10-19T12:10:10;6.32;;;1.67;;
44328;SDS011;30039;51.462;6.892;2023-10-19T12:12:56;3.80;;;1.40;;
44328;SDS011;30039;51.462;6.892;2023-10-19T12:15:42;3.95;;;1.20;;
44328;SDS011;30039;51.462;6.892;2023-10-19T12:18:36;4.40;;;1.50;;
44328;SDS011;30039;51.462;6.892;2023-10-19T12:21:22;6.70;;;1.10;;
44328;SDS011;30039;51.462;6.892;2023-10-19T12:24:13;6.78;;;1.40;;
44328;SDS011;30039;51.462;6.892;2023-10-19T12:27:00;7.15;;;1.52;;
44328;SDS011;30039;51.462;6.892;2023-10-19T12:29:46;7.00;;;1.40;;
44328;SDS011;30039;51.462;6.892;2023-10-19T12:32:31;7.57;;;1.60;;
44328;SDS011;30039;51.462;6.892;2023-10-19T12:35:17;3.88;;;1.13;;
44328;SDS011;30039;51.462;6.892;2023-10-19T12:38:05;4.68;;;1.55;;
44328;SDS011;30039;51.462;6.892;2023-10-19T12:40:51;5.18;;;1.42;;
44328;SDS011;30039;51.462;6.892;2023-10-19T12:43:37;4.10;;;1.30;;
44328;SDS011;30039;51.462;6.892;2023-10-19T12:46:25;4.85;;;1.20;;
44328;SDS011;30039;51.462;6.892;2023-10-19T12:49:12;5.55;;;1.42;;
44328;SDS011;30039;51.462;6.892;2023-10-19T12:52:03;7.75;;;1.58;;
44328;SDS011;30039;51.462;6.892;2023-10-19T12:54:49;7.68;;;1.77;;
44328;SDS011;30039;51.462;6.892;2023-10-19T12:57:36;5.38;;;1.30;;
44328;SDS011;30039;51.462;6.892;2023-10-19T13:00:22;4.63;;;1.52;;
44328;SDS011;30039;51.462;6.892;2023-10-19T13:03:21;6.78;;;1.55;;
44328;SDS011;30039;51.462;6.892;2023-10-19T13:06:08;3.45;;;1.10;;
44328;SDS011;30039;51.462;6.892;2023-10-19T13:08:54;5.60;;;1.40;;
44328;SDS011;30039;51.462;6.892;2023-10-19T13:11:39;7.57;;;2.00;;
44328;SDS011;30039;51.462;6.892;2023-10-19T13:14:25;5.65;;;1.50;;
44328;SDS011;30039;51.462;6.892;2023-10-19T13:17:11;6.75;;;1.55;;
44328;SDS011;30039;51.462;6.892;2023-10-19T13:19:57;4.13;;;1.38;;
44328;SDS011;30039;51.462;6.892;2023-10-19T13:22:46;5.93;;;1.48;;
44328;SDS011;30039;51.462;6.892;2023-10-19T13:25:33;5.60;;;1.30;;
44328;SDS011;30039;51.462;6.892;2023-10-19T13:28:24;4.70;;;1.60;;
44328;SDS011;30039;51.462;6.892;2023-10-19T13:31:12;4.72;;;1.50;;
44328;SDS011;30039;51.462;6.892;2023-10-19T13:34:01;6.25;;;1.60;;
44328;SDS011;30039;51.462;6.892;2023-10-19T13:36:48;5.75;;;1.60;;
44328;SDS011;30039;51.462;6.892;2023-10-19T13:39:36;3.95;;;1.30;;
44328;SDS011;30039;51.462;6.892;2023-10-19T13:42:24;4.80;;;1.65;;
44328;SDS011;30039;51.462;6.892;2023-10-19T13:45:10;5.93;;;1.42;;
44328;SDS011;30039;51.462;6.892;2023-10-19T13:48:03;7.50;;;1.65;;
44328;SDS011;30039;51.462;6.892;2023-10-19T13:50:48;8.20;;;1.77;;
44328;SDS011;30039;51.462;6.892;2023-10-19T13:53:34;7.72;;;1.70;;
44328;SDS011;30039;51.462;6.892;2023-10-19T13:56:20;4.35;;;1.60;;
44328;SDS011;30039;51.462;6.892;2023-10-19T13:59:06;3.72;;;1.75;;
44328;SDS011;30039;51.462;6.892;2023-10-19T14:01:52;5.70;;;1.83;;
44328;SDS011;30039;51.462;6.892;2023-10-19T14:04:37;3.85;;;1.45;;
44328;SDS011;30039;51.462;6.892;2023-10-19T14:07:23;4.13;;;1.50;;
44328;SDS011;30039;51.462;6.892;2023-10-19T14:10:09;7.68;;;1.67;;
44328;SDS011;30039;51.462;6.892;2023-10-19T14:12:58;6.18;;;1.30;;
44328;SDS011;30039;51.462;6.892;2023-10-19T14:15:44;4.40;;;1.50;;
44328;SDS011;30039;51.462;6.892;2023-10-19T14:18:29;6.18;;;1.73;;
44328;SDS011;30039;51.462;6.892;2023-10-19T14:21:17;4.10;;;1.50;;
44328;SDS011;30039;51.462;6.892;2023-10-19T14:24:04;5.40;;;1.75;;
44328;SDS011;30039;51.462;6.892;2023-10-19T14:26:50;5.97;;;1.30;;
44328;SDS011;30039;51.462;6.892;2023-10-19T14:29:36;5.10;;;1.60;;
44328;SDS011;30039;51.462;6.892;2023-10-19T14:32:22;4.63;;;1.58;;
44328;SDS011;30039;51.462;6.892;2023-10-19T14:35:11;4.38;;;1.50;;
44328;SDS011;30039;51.462;6.892;2023-10-19T14:37:57;3.25;;;1.50;;
44328;SDS011;30039;51.462;6.892;2023-10-19T14:40:44;7.43;;;1.58;;
44328;SDS011;30039;51.462;6.892;2023-10-19T14:43:33;4.15;;;1.38;;
44328;SDS011;30039;51.462;6.892;2023-10-19T14:46:19;6.63;;;1.45;;
44328;SDS011;30039;51.462;6.892;2023-10-19T14:49:07;5.65;;;1.60;;
44328;SDS011;30039;51.462;6.892;2023-10-19T14:51:53;6.32;;;1.80;;
44328;SDS011;30039;51.462;6.892;2023-10-19T14:54:38;6.75;;;1.58;;
44328;SDS011;30039;51.462;6.892;2023-10-19T14:57:24;4.03;;;1.55;;
44328;SDS011;30039;51.462;6.892;2023-10-19T15:00:10;5.45;;;1.75;;
44328;SDS011;30039;51.462;6.892;2023-10-19T15:03:14;5.50;;;1.80;;
44328;SDS011;30039;51.462;6.892;2023-10-19T15:06:01;5.90;;;1.50;;
44328;SDS011;30039;51.462;6.892;2023-10-19T15:08:50;3.63;;;1.48;;
44328;SDS011;30039;51.462;6.892;2023-10-19T15:11:36;6.38;;;1.92;;
44328;SDS011;30039;51.462;6.892;2023-10-19T15:14:22;6.38;;;2.00;;
44328;SDS011;30039;51.462;6.892;2023-10-19T15:17:08;4.70;;;1.65;;
44328;SDS011;30039;51.462;6.892;2023-10-19T15:19:54;6.68;;;1.45;;
44328;SDS011;30039;51.462;6.892;2023-10-19T15:22:40;7.07;;;1.60;;
44328;SDS011;30039;51.462;6.892;2023-10-19T15:25:25;5.95;;;1.70;;
44328;SDS011;30039;51.462;6.892;2023-10-19T15:28:11;4.15;;;1.88;;
44328;SDS011;30039;51.462;6.892;2023-10-19T15:30:57;3.85;;;1.65;;
44328;SDS011;30039;51.462;6.892;2023-10-19T15:33:43;3.83;;;1.40;;
44328;SDS011;30039;51.462;6.892;2023-10-19T15:36:28;7.10;;;1.70;;
44328;SDS011;30039;51.462;6.892;2023-10-19T15:39:14;3.65;;;1.63;;
44328;SDS011;30039;51.462;6.892;2023-10-19T15:42:00;5.60;;;1.55;;
44328;SDS011;30039;51.462;6.892;2023-10-19T15:44:45;5.63;;;1.60;;
44328;SDS011;30039;51.462;6.892;2023-10-19T15:47:33;5.95;;;1.88;;
44328;SDS011;30039;51.462;6.892;2023-10-19T15:50:19;4.40;;;1.70;;
44328;SDS011;30039;51.462;6.892;2023-10-19T15:53:04;8.65;;;2.00;;
44328;SDS011;30039;51.462;6.892;2023-10-19T15:55:50;6.63;;;1.40;;
44328;SDS011;30039;51.462;6.892;2023-10-19T15:58:36;4.97;;;1.33;;
44328;SDS011;30039;51.462;6.892;2023-10-19T16:01:22;3.65;;;1.48;;
44328;SDS011;30039;51.462;6.892;2023-10-19T16:04:07;5.47;;;1.63;;
44328;SDS011;30039;51.462;6.892;2023-10-19T16:06:53;4.30;;;1.50;;
44328;SDS011;30039;51.462;6.892;2023-10-19T16:09:39;4.82;;;1.83;;
44328;SDS011;30039;51.462;6.892;2023-10-19T16:12:25;4.53;;;1.70;;
44328;SDS011;30039;51.462;6.892;2023-10-19T16:15:10;5.22;;;1.80;;
44328;SDS011;30039;51.462;6.892;2023-10-19T16:17:57;3.72;;;1.80;;
44328;SDS011;30039;51.462;6.892;2023-10-19T16:20:43;4.32;;;1.73;;
44328;SDS011;30039;51.462;6.892;2023-10-19T16:23:29;4.30;;;1.60;;
44328;SDS011;30039;51.462;6.892;2023-10-19T16:26:14;5.18;;;1.88;;
44328;SDS011;30039;51.462;6.892;2023-10-19T16:29:01;7.03;;;2.03;;
44328;SDS011;30039;51.462;6.892;2023-10-19T16:31:50;4.70;;;1.65;;
44328;SDS011;30039;51.462;6.892;2023-10-19T16:34:36;3.22;;;1.80;;
44328;SDS011;30039;51.462;6.892;2023-10-19T16:37:22;3.42;;;1.50;;
44328;SDS011;30039;51.462;6.892;2023-10-19T16:40:08;5.60;;;1.65;;
44328;SDS011;30039;51.462;6.892;2023-10-19T16:42:54;5.22;;;1.65;;
44328;SDS011;30039;51.462;6.892;2023-10-19T16:45:39;3.55;;;1.50;;
44328;SDS011;30039;51.462;6.892;2023-10-19T16:48:25;2.42;;;1.60;;
44328;SDS011;30039;51.462;6.892;2023-10-19T16:51:11;2.90;;;1.45;;
44328;SDS011;30039;51.462;6.892;2023-10-19T16:53:56;4.32;;;1.70;;
44328;SDS011;30039;51.462;6.892;2023-10-19T16:56:42;5.00;;;1.95;;
44328;SDS011;30039;51.462;6.892;2023-10-19T16:59:34;3.45;;;1.80;;